Terminal Aerodrome Forecast
Issued by NWS Tampa Bay Area, FL

Home | Current Version | Previous Version | Text Only | Print | Product List | Glossary On
Versions: 1 2 3 4 5 6 7 8 9 10 11 12 13 14 15 16 17 18 19 20 21 22 23 24 25 26 27 28
000
FTUS42 KTBW 030200 AAA
TAFTPA
TAF AMD
KTPA 030255Z 0303/0324 VRB04KT P6SM SKC
     FM030800 VRB03KT 4SM BR FEW005 BKN007
     FM031000 VRB03KT 4SM BR OVC004
     FM031400 10006KT P6SM SCT015 SCT250
     FM031600 13006KT P6SM SCT030 SCT250=

USA.gov is the U.S. government's official web portal to all federal, state and local government web resources and services.